createdAt,value
2018-12-24T00:22:04.080Z,20.77
2018-12-24T00:39:27.528Z,21.77
2018-12-24T00:42:03.505Z,21.02
2018-12-24T00:51:28.369Z,20.30
2018-12-24T00:58:15.859Z,22.05
2018-12-24T01:00:48.924Z,20.95
2018-12-24T01:03:22.008Z,22.35
2018-12-24T01:05:54.902Z,23.17
2018-12-24T01:08:28.277Z,22.90
2018-12-24T01:11:01.681Z,22.87
2018-12-24T01:13:34.634Z,23.63
2018-12-24T01:16:07.964Z,23.33
2018-12-24T01:18:40.913Z,22.90
2018-12-24T01:21:14.364Z,23.10
2018-12-24T01:23:47.497Z,21.90
2018-12-24T01:26:20.657Z,22.50
2018-12-24T01:28:54.023Z,23.80
2018-12-24T01:31:26.995Z,23.00
2018-12-24T01:33:59.926Z,24.40
2018-12-24T01:36:32.932Z,24.30
2018-12-24T01:39:06.535Z,23.35
2018-12-24T01:41:39.995Z,25.80
2018-12-24T01:44:13.492Z,23.30
2018-12-24T01:46:46.627Z,25.33
2018-12-24T01:49:19.769Z,24.67
2018-12-24T01:51:55.620Z,24.47
2018-12-24T01:54:28.839Z,24.10
2018-12-24T01:57:01.974Z,23.20
2018-12-24T01:59:58.282Z,21.20
2018-12-24T02:02:42.312Z,20.40
2018-12-24T02:05:16.724Z,23.50
2018-12-24T02:07:49.898Z,22.50
2018-12-24T02:10:22.755Z,23.43
2018-12-24T02:13:15.456Z,23.90
2018-12-24T02:15:48.335Z,22.10
2018-12-24T02:18:21.289Z,21.80
2018-12-24T02:20:54.393Z,21.85
2018-12-24T02:23:32.537Z,21.73
2018-12-24T02:26:06.100Z,21.00
2018-12-24T02:29:09.453Z,19.97
2018-12-24T02:31:44.186Z,19.57
2018-12-24T02:34:17.177Z,18.90
2018-12-24T02:36:50.185Z,21.40
2018-12-24T02:39:23.056Z,20.43
2018-12-24T02:41:56.030Z,19.03
2018-12-24T02:44:28.992Z,18.52
2018-12-24T02:47:12.881Z,17.77
2018-12-24T02:49:50.348Z,17.33
2018-12-24T02:52:23.464Z,16.30
2018-12-24T02:54:56.702Z,14.50
2018-12-24T02:57:29.969Z,13.87
2018-12-24T03:00:03.087Z,13.00
2018-12-24T03:02:36.201Z,13.00
2018-12-24T03:05:09.422Z,20.60
2018-12-24T03:07:42.585Z,27.90
2018-12-24T03:10:15.705Z,27.87
2018-12-24T03:12:48.771Z,30.25
2018-12-24T03:15:21.865Z,34.33
2018-12-24T03:17:54.865Z,30.33
2018-12-24T03:20:27.801Z,29.40
2018-12-24T03:23:00.988Z,27.77
2018-12-24T03:25:34.295Z,27.13
2018-12-24T03:28:07.124Z,26.77
2018-12-24T03:30:41.306Z,26.27
2018-12-24T03:33:14.431Z,25.53
2018-12-24T03:35:47.720Z,24.15
2018-12-24T03:38:20.677Z,23.47
2018-12-24T03:40:54.078Z,20.67
2018-12-24T03:43:27.142Z,22.23
2018-12-24T03:46:00.693Z,19.20
2018-12-24T03:48:33.722Z,20.07
2018-12-24T03:51:07.081Z,19.20
2018-12-24T03:53:40.174Z,18.00
2018-12-24T03:56:13.249Z,18.60
2018-12-24T03:58:46.685Z,19.30
2018-12-24T04:01:19.615Z,18.80
2018-12-24T04:03:52.565Z,18.93
2018-12-24T04:06:25.594Z,19.20
2018-12-24T04:08:58.838Z,18.37
2018-12-24T04:11:32.353Z,18.20
2018-12-24T04:14:05.570Z,18.40
2018-12-24T04:16:38.516Z,17.23
2018-12-24T04:19:11.680Z,18.30
2018-12-24T04:21:48.690Z,18.65
2018-12-24T04:24:21.725Z,19.05
2018-12-24T04:26:55.501Z,17.67
2018-12-24T04:29:28.695Z,17.97
2018-12-24T04:32:01.865Z,18.07
2018-12-24T04:34:35.362Z,18.80
2018-12-24T04:37:08.529Z,18.97
2018-12-24T04:39:41.632Z,18.73
2018-12-24T04:42:14.668Z,19.70
2018-12-24T04:45:06.993Z,18.83
2018-12-24T04:47:40.295Z,17.80
2018-12-24T04:50:13.147Z,17.37
2018-12-24T04:52:46.228Z,18.98
2018-12-24T04:55:19.447Z,16.93
2018-12-24T04:57:52.462Z,8.60
2018-12-24T05:00:25.639Z,5.23
2018-12-24T05:02:58.890Z,4.37
2018-12-24T05:05:32.532Z,4.60
2018-12-24T05:08:05.697Z,6.75
2018-12-24T05:10:38.681Z,4.90
2018-12-24T05:13:11.777Z,4.90
2018-12-24T05:15:48.099Z,4.97
2018-12-24T05:18:20.989Z,6.23
2018-12-24T05:20:54.512Z,5.30
2018-12-24T05:23:27.696Z,5.17
2018-12-24T05:26:00.753Z,4.47
2018-12-24T05:28:33.647Z,5.17
2018-12-24T05:31:06.568Z,5.13
2018-12-24T05:33:42.008Z,5.40
2018-12-24T05:36:13.830Z,5.00
2018-12-24T05:38:46.931Z,5.60
2018-12-24T05:41:20.179Z,6.80
2018-12-24T05:43:52.919Z,6.00
2018-12-24T05:46:26.028Z,6.17
2018-12-24T05:48:59.039Z,5.97
2018-12-24T05:51:32.414Z,6.33
2018-12-24T05:54:05.491Z,6.60
2018-12-24T05:56:38.773Z,6.40
2018-12-24T05:59:11.786Z,6.67
2018-12-24T06:02:07.154Z,6.75
2018-12-24T06:04:40.198Z,9.55
2018-12-24T06:07:13.705Z,9.83
2018-12-24T06:09:47.256Z,9.40
2018-12-24T06:12:20.344Z,10.17
2018-12-24T06:14:53.510Z,9.50
2018-12-24T06:17:26.497Z,9.47
2018-12-24T06:19:59.762Z,9.57
2018-12-24T06:22:32.876Z,8.97
2018-12-24T06:25:05.970Z,8.78
2018-12-24T06:27:39.180Z,8.93
2018-12-24T06:30:12.614Z,8.23
2018-12-24T06:32:46.115Z,8.93
2018-12-24T06:35:19.150Z,8.90
2018-12-24T06:37:52.101Z,7.53
2018-12-24T06:40:25.158Z,7.70
2018-12-24T06:42:58.516Z,8.05
2018-12-24T06:45:31.638Z,7.43
2018-12-24T06:48:04.737Z,7.80
2018-12-24T06:50:37.804Z,7.20
2018-12-24T06:53:10.798Z,7.00
2018-12-24T06:55:43.946Z,6.53
2018-12-24T06:58:16.938Z,7.37
2018-12-24T07:00:50.308Z,7.60
2018-12-24T07:03:23.398Z,6.63
2018-12-24T07:05:56.519Z,7.60
2018-12-24T07:08:29.689Z,6.53
2018-12-24T07:11:02.835Z,7.10
2018-12-24T07:13:36.172Z,6.90
2018-12-24T07:16:09.294Z,6.47
2018-12-24T07:18:42.362Z,6.30
2018-12-24T07:21:15.308Z,6.37
2018-12-24T07:23:48.289Z,6.57
2018-12-24T07:26:21.396Z,5.80
2018-12-24T07:28:58.999Z,5.93
2018-12-24T07:31:28.659Z,6.13
2018-12-24T07:34:01.857Z,7.67
2018-12-24T07:36:37.301Z,5.93
2018-12-24T07:39:09.896Z,7.43
2018-12-24T07:41:43.174Z,6.00
2018-12-24T07:44:23.910Z,6.00
2018-12-24T07:46:50.675Z,5.87
2018-12-24T07:49:23.789Z,5.93
2018-12-24T07:51:56.796Z,6.30
2018-12-24T07:54:29.969Z,5.83
2018-12-24T07:57:03.278Z,6.10
2018-12-24T08:02:26.338Z,6.70
2018-12-24T08:04:59.543Z,6.57
2018-12-24T08:07:32.559Z,5.83
2018-12-24T08:10:05.621Z,6.37
2018-12-24T08:12:38.747Z,7.00
2018-12-24T08:15:12.154Z,6.20
2018-12-24T08:17:45.422Z,6.73
2018-12-24T08:20:18.678Z,7.10
2018-12-24T08:22:54.652Z,7.00
2018-12-24T08:25:27.580Z,7.43
2018-12-24T08:28:00.705Z,7.53
2018-12-24T08:30:33.708Z,7.90
2018-12-24T08:33:06.741Z,8.13
2018-12-24T08:35:39.504Z,7.73
2018-12-24T08:38:12.478Z,7.93
2018-12-24T08:40:45.298Z,8.17
2018-12-24T08:43:18.316Z,8.67
2018-12-24T08:45:51.373Z,8.53
2018-12-24T08:48:24.654Z,9.07
2018-12-24T08:50:57.584Z,9.03
2018-12-24T08:53:30.556Z,9.77
2018-12-24T08:56:03.655Z,9.67
2018-12-24T08:58:36.594Z,9.43
2018-12-24T09:01:09.783Z,9.77
2018-12-24T09:03:42.774Z,10.67
2018-12-24T09:06:15.781Z,9.20
2018-12-24T09:08:49.392Z,10.90
2018-12-24T09:11:22.567Z,10.50
2018-12-24T09:13:55.620Z,11.07
2018-12-24T09:16:28.562Z,11.13
2018-12-24T09:19:04.336Z,11.60
2018-12-24T09:21:37.455Z,12.23
2018-12-24T09:24:10.303Z,11.73
2018-12-24T09:26:43.313Z,11.83
2018-12-24T09:29:16.407Z,12.28
2018-12-24T09:31:49.272Z,13.40
2018-12-24T09:34:22.242Z,12.73
2018-12-24T09:36:55.151Z,13.22
2018-12-24T09:39:28.160Z,12.45
2018-12-24T09:42:01.217Z,13.28
2018-12-24T09:44:34.558Z,13.87
2018-12-24T09:47:07.657Z,13.97
2018-12-24T09:49:40.712Z,15.03
2018-12-24T09:52:14.735Z,15.53
2018-12-24T09:54:47.843Z,16.07
2018-12-24T09:57:21.083Z,16.13
2018-12-24T09:59:54.180Z,16.13
2018-12-24T10:02:29.904Z,16.20
2018-12-24T10:05:03.039Z,15.13
2018-12-24T10:07:35.959Z,15.13
2018-12-24T10:10:11.030Z,15.47
2018-12-24T10:12:44.054Z,15.17
2018-12-24T10:15:16.950Z,15.17
2018-12-24T10:17:49.966Z,14.70
2018-12-24T10:20:23.006Z,14.60
2018-12-24T10:22:56.190Z,13.87
2018-12-24T10:25:29.307Z,13.90
2018-12-24T10:28:02.157Z,13.80
2018-12-24T10:30:35.217Z,13.60
2018-12-24T10:33:08.177Z,13.33
2018-12-24T10:35:41.127Z,12.70
2018-12-24T10:38:14.063Z,13.30
2018-12-24T10:40:49.852Z,12.43
2018-12-24T10:43:22.855Z,13.27
2018-12-24T10:45:56.037Z,12.73
2018-12-24T10:48:29.638Z,13.53
2018-12-24T10:51:02.809Z,13.20
2018-12-24T10:53:36.245Z,13.93
2018-12-24T10:56:09.233Z,14.33
2018-12-24T10:58:42.720Z,14.40
2018-12-24T11:01:15.704Z,14.40
2018-12-24T11:03:50.747Z,15.33
2018-12-24T11:06:23.684Z,16.47
2018-12-24T11:08:56.622Z,18.60
2018-12-24T11:11:30.135Z,17.77
2018-12-24T11:14:02.942Z,17.83
2018-12-24T11:16:35.928Z,17.90
2018-12-24T11:19:08.884Z,18.73
2018-12-24T11:21:42.073Z,17.70
2018-12-24T11:24:15.670Z,18.07
2018-12-24T11:26:49.333Z,18.73
2018-12-24T11:29:22.367Z,19.30
2018-12-24T11:31:55.523Z,18.90
2018-12-24T11:34:28.756Z,19.13
2018-12-24T11:37:01.922Z,19.17
2018-12-24T11:39:34.897Z,20.10
2018-12-24T11:42:08.426Z,18.77
2018-12-24T11:44:41.704Z,20.17
2018-12-24T11:47:15.121Z,19.80
2018-12-24T11:49:48.229Z,20.07
2018-12-24T11:52:21.608Z,21.50
2018-12-24T11:54:54.696Z,19.87
2018-12-24T11:57:27.696Z,20.47
2018-12-24T12:00:00.800Z,20.20
2018-12-24T12:02:33.663Z,21.60
2018-12-24T12:05:06.971Z,20.90
2018-12-24T12:07:40.105Z,21.00
2018-12-24T12:10:13.434Z,19.60
2018-12-24T12:12:46.626Z,20.67
2018-12-24T12:15:19.661Z,20.40
2018-12-24T12:17:52.780Z,20.07
2018-12-24T12:20:25.812Z,19.40
2018-12-24T12:22:58.619Z,18.77
2018-12-24T12:25:31.747Z,19.47
2018-12-24T12:28:04.781Z,18.53
2018-12-24T12:30:38.320Z,17.73
2018-12-24T12:33:11.641Z,18.07
2018-12-24T12:35:44.950Z,17.70
2018-12-24T12:38:18.464Z,17.67
2018-12-24T12:40:51.697Z,17.60
2018-12-24T12:43:24.782Z,18.07
2018-12-24T12:45:57.662Z,18.23
2018-12-24T12:48:30.730Z,17.23
2018-12-24T12:51:03.696Z,18.07
2018-12-24T12:53:36.804Z,17.10
2018-12-24T12:56:09.825Z,17.50
2018-12-24T12:58:42.860Z,17.67
2018-12-24T13:01:15.986Z,17.37
2018-12-24T13:03:49.062Z,18.77
2018-12-24T13:06:22.134Z,16.73
2018-12-24T13:08:55.257Z,18.20
2018-12-24T13:11:28.174Z,18.00
2018-12-24T13:14:01.378Z,16.57
2018-12-24T13:16:34.485Z,17.13
2018-12-24T13:19:07.714Z,17.00
2018-12-24T13:21:41.945Z,15.83
2018-12-24T13:24:15.131Z,17.12
2018-12-24T13:26:48.170Z,16.40
2018-12-24T13:29:21.163Z,15.67
2018-12-24T13:31:54.586Z,15.83
2018-12-24T13:34:27.779Z,14.90
2018-12-24T13:37:00.890Z,15.40
2018-12-24T13:39:33.877Z,15.97
2018-12-24T13:42:06.760Z,14.90
2018-12-24T13:44:40.065Z,14.45
2018-12-24T13:47:13.267Z,14.37
2018-12-24T13:49:46.313Z,14.50
2018-12-24T13:52:19.516Z,13.87
2018-12-24T13:54:52.793Z,14.63
2018-12-24T13:57:26.411Z,14.00
2018-12-24T13:59:59.619Z,13.93
2018-12-24T14:02:32.595Z,13.68
2018-12-24T14:05:05.500Z,14.13
2018-12-24T14:07:38.502Z,13.57
2018-12-24T14:10:11.514Z,15.27
2018-12-24T14:12:44.694Z,14.50
2018-12-24T14:15:17.591Z,14.37
2018-12-24T14:17:50.622Z,13.40
2018-12-24T14:20:23.676Z,14.10
2018-12-24T14:22:56.794Z,12.70
2018-12-24T14:25:29.762Z,12.53
2018-12-24T14:28:03.124Z,12.83
2018-12-24T14:30:39.158Z,13.33
2018-12-24T14:33:12.175Z,12.07
2018-12-24T14:35:45.162Z,13.68
2018-12-24T14:38:17.964Z,13.40
2018-12-24T14:40:51.625Z,13.30
2018-12-24T14:43:25.020Z,13.33
2018-12-24T14:45:58.100Z,12.83
2018-12-24T14:48:31.109Z,13.20
2018-12-24T14:51:04.208Z,13.43
2018-12-24T14:53:37.466Z,13.33
2018-12-24T14:56:10.487Z,12.33
2018-12-24T14:58:43.361Z,13.00
2018-12-24T15:01:16.594Z,13.47
2018-12-24T15:03:49.800Z,11.97
2018-12-24T15:06:22.822Z,13.13
2018-12-24T15:08:55.796Z,12.63
2018-12-24T15:11:28.735Z,12.57
2018-12-24T15:14:02.364Z,13.38
2018-12-24T15:16:35.947Z,12.73
2018-12-24T15:19:09.142Z,12.60
2018-12-24T15:21:42.298Z,12.43
2018-12-24T15:24:15.574Z,12.97
2018-12-24T15:26:48.670Z,12.83
2018-12-24T15:29:21.675Z,12.50
2018-12-24T15:31:54.755Z,11.87
2018-12-24T15:34:27.679Z,13.50
2018-12-24T15:37:00.665Z,12.97
2018-12-24T15:39:33.554Z,11.93
2018-12-24T15:42:06.580Z,12.30
2018-12-24T15:44:39.533Z,11.73
2018-12-24T15:47:12.876Z,11.67
2018-12-24T15:49:46.317Z,12.25
2018-12-24T15:52:19.176Z,13.33
2018-12-24T15:54:52.309Z,13.38
2018-12-24T15:57:25.339Z,13.47
2018-12-24T15:59:58.320Z,12.33
2018-12-24T16:02:31.556Z,13.37
2018-12-24T16:05:07.293Z,11.63
2018-12-24T16:07:40.379Z,12.40
2018-12-24T16:10:13.469Z,12.30
2018-12-24T16:12:46.558Z,12.30
2018-12-24T16:15:19.595Z,12.45
2018-12-24T16:17:52.702Z,12.80
2018-12-24T16:20:25.948Z,12.93
2018-12-24T16:22:58.987Z,13.07
2018-12-24T16:25:31.945Z,12.00
2018-12-24T16:28:04.732Z,12.20
2018-12-24T16:30:37.703Z,12.73
2018-12-24T16:33:11.607Z,11.33
2018-12-24T16:35:44.598Z,12.17
2018-12-24T16:38:17.565Z,11.67
2018-12-24T16:40:50.707Z,12.65
2018-12-24T16:43:24.168Z,11.90
2018-12-24T16:45:57.260Z,10.97
2018-12-24T16:48:30.605Z,11.83
2018-12-24T16:51:03.752Z,11.90
2018-12-24T16:53:40.620Z,12.17
2018-12-24T16:56:12.481Z,11.60
2018-12-24T16:58:45.431Z,11.07
2018-12-24T17:01:18.839Z,11.87
2018-12-24T17:03:52.003Z,10.75
2018-12-24T17:06:25.007Z,11.17
2018-12-24T17:09:00.123Z,10.63
2018-12-24T17:11:32.656Z,11.80
2018-12-24T17:14:05.899Z,11.27
2018-12-24T17:16:39.072Z,11.27
2018-12-24T17:19:15.597Z,11.33
2018-12-24T17:21:48.436Z,10.97
2018-12-24T17:24:21.783Z,10.77
2018-12-24T17:26:55.019Z,11.33
2018-12-24T17:29:28.068Z,11.77
2018-12-24T17:32:01.253Z,10.73
2018-12-24T17:34:34.173Z,11.87
2018-12-24T17:37:06.739Z,11.10
2018-12-24T17:39:40.217Z,12.00
2018-12-24T17:42:13.456Z,10.87
2018-12-24T17:44:46.322Z,11.57
2018-12-24T17:47:20.146Z,10.63
2018-12-24T17:49:53.253Z,11.97
2018-12-24T17:52:26.410Z,10.73
2018-12-24T17:54:59.478Z,10.67
2018-12-24T17:57:32.608Z,11.48
2018-12-24T18:00:07.298Z,10.85
2018-12-24T18:02:40.657Z,12.33
2018-12-24T18:05:14.481Z,10.83
2018-12-24T18:07:47.748Z,11.20
2018-12-24T18:10:20.934Z,12.50
2018-12-24T18:12:53.820Z,10.93
2018-12-24T18:15:29.914Z,12.43
2018-12-24T18:18:02.857Z,11.57
2018-12-24T18:20:35.845Z,12.00
2018-12-24T18:23:09.001Z,11.87
2018-12-24T18:25:42.497Z,12.93
2018-12-24T18:28:15.789Z,12.17
2018-12-24T18:30:48.695Z,12.23
2018-12-24T18:33:21.615Z,12.53
2018-12-24T18:35:54.520Z,12.57
2018-12-24T18:38:27.844Z,12.85
2018-12-24T18:41:00.977Z,13.23
2018-12-24T18:43:33.899Z,13.05
2018-12-24T18:46:07.187Z,13.23
2018-12-24T18:48:40.321Z,12.73
2018-12-24T18:51:13.439Z,12.73
2018-12-24T18:53:46.384Z,13.27
2018-12-24T18:56:19.534Z,13.40
2018-12-24T18:58:52.834Z,13.97
2018-12-24T19:01:26.171Z,14.40
2018-12-24T19:03:59.678Z,13.45
2018-12-24T19:06:32.415Z,14.00
2018-12-24T19:09:06.846Z,15.00
2018-12-24T19:11:41.969Z,15.90
2018-12-24T19:14:14.927Z,16.53
2018-12-24T19:16:47.974Z,18.20
2018-12-24T19:19:21.000Z,17.67
2018-12-24T19:21:54.154Z,18.87
2018-12-24T19:24:27.158Z,18.10
2018-12-24T19:27:00.175Z,19.67
2018-12-24T19:29:32.961Z,21.27
2018-12-24T19:32:06.426Z,19.37
2018-12-24T19:34:39.487Z,21.33
2018-12-24T19:37:12.518Z,21.23
2018-12-24T19:39:45.576Z,20.20
2018-12-24T19:42:18.382Z,22.30
2018-12-24T19:44:51.409Z,22.73
2018-12-24T19:47:24.625Z,21.90
2018-12-24T19:49:58.059Z,22.33
2018-12-24T19:52:31.101Z,22.27
2018-12-24T19:55:04.048Z,23.33
2018-12-24T19:57:36.845Z,23.80
2018-12-24T20:00:10.878Z,23.43
2018-12-24T20:02:44.062Z,24.23
2018-12-24T20:05:17.159Z,23.30
2018-12-24T20:07:50.516Z,24.80
2018-12-24T20:10:23.387Z,25.83
2018-12-24T20:12:57.275Z,24.47
2018-12-24T20:15:31.013Z,25.53
2018-12-24T20:18:04.015Z,23.67
2018-12-24T20:20:37.397Z,24.10
2018-12-24T20:23:10.823Z,24.43
2018-12-24T20:25:43.967Z,24.98
2018-12-24T20:28:17.386Z,24.27
2018-12-24T20:30:50.594Z,24.13
2018-12-24T20:33:23.733Z,22.37
2018-12-24T20:35:56.990Z,23.47
2018-12-24T20:38:36.986Z,22.83
2018-12-24T20:41:04.093Z,22.67
2018-12-24T20:43:37.465Z,22.60
2018-12-24T20:46:12.817Z,23.67
2018-12-24T20:48:46.044Z,24.43
2018-12-24T20:51:19.087Z,23.90
2018-12-24T20:53:52.070Z,23.75
2018-12-24T20:56:25.203Z,24.10
2018-12-24T20:58:58.270Z,22.95
2018-12-24T21:01:31.285Z,25.88
2018-12-24T21:04:04.346Z,24.27
2018-12-24T21:06:37.281Z,29.52
2018-12-24T21:09:10.227Z,25.27
2018-12-24T21:11:43.390Z,23.40
2018-12-24T21:14:16.372Z,23.17
2018-12-24T21:16:52.715Z,36.70
2018-12-24T21:19:25.906Z,27.93
2018-12-24T21:21:59.185Z,25.13
2018-12-24T21:24:32.163Z,23.00
2018-12-24T21:27:05.528Z,24.03
2018-12-24T21:29:38.684Z,31.23
2018-12-24T21:32:11.740Z,27.87
2018-12-24T21:34:44.693Z,24.93
2018-12-24T21:37:17.678Z,24.47
2018-12-24T21:39:50.539Z,25.03
2018-12-24T21:42:29.698Z,23.63
2018-12-24T21:45:02.752Z,23.60
2018-12-24T21:47:35.601Z,22.90
2018-12-24T21:50:08.506Z,23.67
2018-12-24T21:52:41.592Z,23.47
2018-12-24T21:55:14.445Z,25.63
2018-12-24T21:57:47.554Z,26.50
2018-12-24T22:00:20.761Z,24.60
2018-12-24T22:02:53.752Z,23.67
2018-12-24T22:05:26.693Z,24.30
2018-12-24T22:07:59.807Z,24.30
2018-12-24T22:10:32.804Z,23.63
2018-12-24T22:13:05.697Z,22.85
2018-12-24T22:15:38.678Z,20.53
2018-12-24T22:18:11.903Z,24.50
2018-12-24T22:20:45.317Z,25.08
2018-12-24T22:23:18.333Z,22.53
2018-12-24T22:25:51.257Z,24.87
2018-12-24T22:28:24.476Z,27.47
2018-12-24T22:30:57.525Z,26.27
2018-12-24T22:33:30.587Z,24.60
2018-12-24T22:36:03.250Z,23.47
2018-12-24T22:38:36.433Z,25.27
2018-12-24T22:41:10.060Z,23.83
2018-12-24T22:43:43.096Z,23.87
2018-12-24T22:46:16.064Z,25.77
2018-12-24T22:48:49.045Z,24.80
2018-12-24T22:51:22.059Z,26.60
2018-12-24T22:53:55.135Z,22.93
2018-12-24T22:56:28.197Z,24.87
2018-12-24T22:59:01.227Z,24.77
2018-12-24T23:01:34.326Z,22.57
2018-12-24T23:04:07.065Z,23.20
2018-12-24T23:06:40.040Z,23.67
2018-12-24T23:09:13.354Z,23.87
2018-12-24T23:11:46.841Z,22.75
2018-12-24T23:14:19.913Z,23.03
2018-12-24T23:16:53.085Z,24.75
2018-12-24T23:19:26.256Z,23.70
2018-12-24T23:21:59.318Z,22.03
2018-12-24T23:24:32.191Z,21.50
2018-12-24T23:27:05.208Z,21.30
2018-12-24T23:29:38.296Z,21.87
2018-12-24T23:32:11.551Z,21.77
2018-12-24T23:34:44.253Z,19.60
2018-12-24T23:37:17.283Z,19.87
2018-12-24T23:39:50.354Z,21.93
2018-12-24T23:42:23.334Z,22.20
2018-12-24T23:44:56.414Z,22.70
2018-12-24T23:47:29.433Z,22.93
2018-12-24T23:50:02.171Z,20.43
2018-12-24T23:52:35.775Z,25.53
2018-12-24T23:55:09.520Z,21.57
2018-12-24T23:57:42.618Z,21.00
